Time;durP1;ratioP1;P1;durP2;ratioP2;P2;SDS_P1;SDS_P2;PMS_P1;PMS_P2;Temp;Humidity;BMP_temperature;BMP_pressure;BME280_temperature;BME280_humidity;BME280_pressure;Samples;Min_cycle;Max_cycle;Signal;HPM_P1;HPM_P2
2022/08/08 00:01:16;;;;;;;6.10;4.00;;;;;;;16.98;54.56;100866.73;106561;1271;138178;-76
2022/08/08 00:03:59;;;;;;;6.80;4.10;;;;;;;16.92;54.73;100869.65;106606;1271;95147;-76
2022/08/08 00:06:52;;;;;;;8.80;4.70;;;;;;;16.88;54.94;100868.78;106283;1271;95058;-77
2022/08/08 00:09:40;;;;;;;7.10;4.30;;;;;;;16.83;55.14;100868.66;106291;1271;109810;-76
2022/08/08 00:12:19;;;;;;;8.60;4.40;;;;;;;16.78;55.45;100864.86;106266;1271;109235;-76
2022/08/08 00:15:06;;;;;;;7.10;4.70;;;;;;;16.74;55.72;100864.55;106093;1271;137991;-76
2022/08/08 00:17:48;;;;;;;9.90;5.40;;;;;;;16.72;55.87;100860.27;106207;1271;95498;-76
2022/08/08 00:20:42;;;;;;;6.20;4.50;;;;;;;16.71;56.28;100862.92;106157;1271;138518;-76
2022/08/08 00:23:25;;;;;;;9.40;5.10;;;;;;;16.70;56.56;100861.42;106242;1271;109955;-77
2022/08/08 00:26:24;;;;;;;8.30;5.40;;;;;;;16.68;56.90;100858.52;106150;1271;139087;-76
2022/08/08 00:29:07;;;;;;;9.00;5.00;;;;;;;16.63;57.24;100855.02;106212;1271;109064;-76
2022/08/08 00:31:47;;;;;;;7.00;4.90;;;;;;;16.58;57.48;100857.20;106071;1271;138106;-76
2022/08/08 00:35:21;;;;;;;8.80;5.10;;;;;;;16.53;57.89;100855.35;106148;1271;95883;-76
2022/08/08 00:38:12;;;;;;;8.80;5.00;;;;;;;16.49;58.29;100854.62;106147;1271;138029;-76
2022/08/08 00:44:36;;;;;;;9.30;5.00;;;;;;;16.51;58.79;100849.29;103433;1311;635663;-75
2022/08/08 00:47:50;;;;;;;10.50;5.30;;;;;;;16.49;58.93;100849.02;105518;1283;94380;-81
2022/08/08 00:51:33;;;;;;;7.90;4.90;;;;;;;16.48;58.83;100851.52;106611;1284;137864;-79
2022/08/08 00:54:48;;;;;;;8.30;5.50;;;;;;;16.47;58.99;100849.81;104946;1288;108349;-79
2022/08/08 00:57:59;;;;;;;7.20;4.60;;;;;;;16.47;59.02;100848.95;103920;1285;1226954;-79
2022/08/08 01:00:40;;;;;;;11.30;5.30;;;;;;;16.47;59.02;100851.42;106437;1285;109286;-80
2022/08/08 01:03:54;;;;;;;12.30;5.50;;;;;;;16.46;59.17;100850.73;106067;1286;93903;-79
2022/08/08 01:07:04;;;;;;;13.60;5.00;;;;;;;16.44;59.16;100849.78;105113;1287;137945;-72
2022/08/08 01:10:16;;;;;;;9.40;4.80;;;;;;;16.42;59.33;100846.53;105002;1287;108421;-81
2022/08/08 01:13:13;;;;;;;6.90;4.70;;;;;;;16.41;59.21;100845.20;105315;1284;138080;-81
2022/08/08 01:16:00;;;;;;;;;;;;;;;16.38;59.17;100843.39;105068;1285;109631;-77
2022/08/08 01:19:06;;;;;;;6.70;4.40;;;;;;;16.37;59.18;100840.67;105946;1287;94310;-77
2022/08/08 01:22:32;;;;;;;8.80;4.70;;;;;;;16.37;59.11;100841.36;106417;1285;93684;-77
2022/08/08 01:25:39;;;;;;;10.70;5.00;;;;;;;16.36;59.09;100844.23;105092;1287;137815;-78
2022/08/08 01:28:34;;;;;;;9.10;5.50;;;;;;;16.35;59.28;100843.02;105156;1282;108827;-77
2022/08/08 01:35:03;;;;;;;8.10;4.90;;;;;;;16.32;59.11;100836.13;102776;1309;636076;-78
2022/08/08 01:38:27;;;;;;;6.20;4.50;;;;;;;16.28;59.03;100830.48;105448;1280;137637;-78
2022/08/08 01:41:09;;;;;;;7.90;5.00;;;;;;;16.26;58.95;100830.09;105969;1277;94384;-77
2022/08/08 01:43:57;;;;;;;8.10;5.10;;;;;;;16.24;58.94;100831.42;105785;1277;137332;-76
2022/08/08 01:46:51;;;;;;;10.00;5.50;;;;;;;16.23;59.00;100826.03;105799;1277;107778;-77
2022/08/08 01:49:48;;;;;;;10.20;5.20;;;;;;;16.22;58.88;100826.77;105158;1274;138054;-77
2022/08/08 01:52:44;;;;;;;11.70;5.70;;;;;;;16.24;58.87;100828.61;106155;1274;94640;-79
2022/08/08 01:55:47;;;;;;;10.70;5.80;;;;;;;16.24;59.09;100831.40;106003;1274;137792;-78
2022/08/08 01:58:52;;;;;;;10.10;5.30;;;;;;;16.23;59.07;100830.41;107672;1274;107651;-77
2022/08/08 02:01:45;;;;;;;6.00;5.00;;;;;;;16.19;59.12;100834.46;107504;1274;138772;-78
2022/08/08 02:04:42;;;;;;;10.70;5.40;;;;;;;16.16;59.18;100835.13;106098;1274;107498;-78
2022/08/08 02:07:25;;;;;;;9.00;4.90;;;;;;;16.14;59.27;100836.96;105914;1274;138302;-77
2022/08/08 02:10:46;;;;;;;6.70;4.60;;;;;;;16.12;59.43;100844.58;106117;1274;95125;-80
2022/08/08 02:13:26;;;;;;;10.30;5.50;;;;;;;16.11;59.65;100845.53;105983;1274;137881;-80
2022/08/08 02:16:26;;;;;;;10.00;5.50;;;;;;;16.09;59.65;100848.09;106178;1275;106946;-79
2022/08/08 02:19:08;;;;;;;10.00;5.40;;;;;;;16.07;59.74;100844.66;105946;1274;138283;-79
2022/08/08 02:25:09;;;;;;;10.50;5.40;;;;;;;16.04;59.94;100856.74;106457;1275;139136;-79
2022/08/08 02:27:49;;;;;;;9.90;5.60;;;;;;;16.00;59.87;100854.98;107594;1275;108685;-80
2022/08/08 02:30:29;;;;;;;7.90;5.40;;;;;;;15.96;59.92;100858.28;107548;1274;108857;-80
2022/08/08 02:33:24;;;;;;;7.70;4.80;;;;;;;15.91;60.00;100860.09;106746;1274;138598;-79
2022/08/08 02:36:38;;;;;;;14.80;5.30;;;;;;;15.86;60.16;100857.39;106225;1277;95186;-80
2022/08/08 02:39:37;;;;;;;7.80;5.10;;;;;;;15.83;60.29;100859.61;106282;1270;95138;-80
2022/08/08 02:43:14;;;;;;;10.30;5.10;;;;;;;15.80;60.42;100857.45;106207;1270;109311;-79
2022/08/08 02:46:34;;;;;;;9.60;5.10;;;;;;;15.75;60.58;100860.27;106262;1270;108595;-78
2022/08/08 02:49:57;;;;;;;10.40;4.70;;;;;;;15.73;60.79;100859.32;106316;1270;139363;-79
2022/08/08 02:52:59;;;;;;;7.70;4.90;;;;;;;15.71;60.80;100864.14;106120;1270;95199;-79
2022/08/08 02:56:11;;;;;;;9.00;4.50;;;;;;;15.70;60.90;100868.38;106732;1270;137649;-81
2022/08/08 02:59:28;;;;;;;8.50;4.80;;;;;;;15.71;60.98;100865.90;107004;1271;109622;-80
2022/08/08 03:02:38;;;;;;;6.60;4.40;;;;;;;15.74;61.13;100866.33;107280;1270;138542;-80
2022/08/08 03:05:51;;;;;;;11.40;4.90;;;;;;;15.75;61.06;100867.15;106293;1270;107465;-82
2022/08/08 03:09:10;;;;;;;7.40;4.90;;;;;;;15.75;61.08;100862.77;106856;1271;138463;-80
2022/08/08 03:12:15;;;;;;;10.00;4.80;;;;;;;15.75;61.19;100861.86;105951;1276;95193;-81
2022/08/08 03:15:48;;;;;;;7.70;4.70;;;;;;;15.74;61.26;100861.05;106896;1274;109694;-79
2022/08/08 03:18:47;;;;;;;7.20;4.40;;;;;;;15.73;61.43;100865.30;107221;1274;107918;-81
2022/08/08 03:21:20;;;;;;;10.60;4.90;;;;;;;15.73;61.37;100867.58;106170;1274;109110;-81
2022/08/08 03:24:12;;;;;;;7.80;4.70;;;;;;;15.73;61.33;100862.33;106966;1274;94377;-82
2022/08/08 03:26:56;;;;;;;9.40;4.50;;;;;;;15.71;61.44;100869.91;106805;1275;139707;-81
2022/08/08 03:29:35;;;;;;;7.90;5.00;;;;;;;15.71;61.51;100868.70;106284;1275;109432;-80
2022/08/08 03:35:30;;;;;;;8.00;4.60;;;;;;;15.75;61.57;100875.05;105958;1274;109031;-78
2022/08/08 03:38:06;;;;;;;7.80;4.70;;;;;;;15.76;61.74;100874.11;106632;1276;138199;-78
2022/08/08 03:40:58;;;;;;;9.30;4.60;;;;;;;15.76;61.72;100877.61;107650;1274;93316;-72
2022/08/08 03:43:39;;;;;;;6.60;4.10;;;;;;;15.77;61.73;100874.58;107443;1274;138126;-82
2022/08/08 03:46:14;;;;;;;7.30;4.40;;;;;;;15.77;61.89;100870.17;107498;1275;108934;-83
2022/08/08 03:48:56;;;;;;;7.80;4.50;;;;;;;15.79;61.98;100872.73;107655;1270;138055;-83
2022/08/08 03:51:53;;;;;;;7.30;4.50;;;;;;;15.81;61.83;100874.61;106306;1271;95360;-80
2022/08/08 03:54:31;;;;;;;5.00;4.40;;;;;;;15.82;61.87;100870.85;106545;1270;95121;-81
2022/08/08 03:57:25;;;;;;;8.90;5.00;;;;;;;15.85;61.82;100870.90;107247;1271;109783;-80
2022/08/08 04:00:20;;;;;;;8.00;4.70;;;;;;;15.87;61.82;100875.38;106241;1271;108815;-80
2022/08/08 04:03:02;;;;;;;7.10;4.30;;;;;;;15.90;61.78;100876.14;106175;1270;139277;-83
2022/08/08 04:05:42;;;;;;;5.90;4.20;;;;;;;15.94;61.92;100882.26;107522;1270;94110;-84
2022/08/08 04:08:24;;;;;;;5.70;4.00;;;;;;;15.98;61.93;100883.30;106675;1271;138122;-83
2022/08/08 04:11:22;;;;;;;11.90;4.90;;;;;;;16.04;62.10;100883.77;106436;1270;109197;-83
2022/08/08 04:13:56;;;;;;;10.30;4.40;;;;;;;16.10;62.00;100882.22;107504;1270;138900;-83
2022/08/08 04:16:48;;;;;;;6.40;4.10;;;;;;;16.17;61.94;100885.96;107734;1270;108813;-83
2022/08/08 04:19:22;;;;;;;6.90;4.40;;;;;;;16.23;61.87;100890.58;107459;1270;138220;-82
2022/08/08 04:22:02;;;;;;;6.30;4.20;;;;;;;16.30;61.85;100885.67;106440;1270;95166;-83
2022/08/08 04:24:39;;;;;;;5.80;3.90;;;;;;;16.38;61.63;100886.23;107881;1271;108805;-82
2022/08/08 04:27:13;;;;;;;8.60;4.50;;;;;;;16.46;61.45;100890.58;106443;1270;108099;-81
2022/08/08 04:30:08;;;;;;;11.70;4.50;;;;;;;16.55;61.21;100887.70;106308;1270;108188;-82
2022/08/08 04:32:52;;;;;;;9.50;4.50;;;;;;;16.64;61.12;100886.60;107031;1270;138638;-81
2022/08/08 04:35:32;;;;;;;5.80;3.90;;;;;;;16.75;60.87;100891.55;106271;1270;95128;-81
2022/08/08 04:38:11;;;;;;;9.60;4.70;;;;;;;16.86;60.66;100890.80;106026;1270;138848;-82
2022/08/08 04:40:53;;;;;;;5.20;3.90;;;;;;;17.03;60.48;100896.38;106184;1271;108940;-81
2022/08/08 04:43:27;;;;;;;17.40;5.70;;;;;;;17.17;60.34;100891.77;106127;1271;138333;-79
2022/08/08 04:46:20;;;;;;;9.80;4.30;;;;;;;17.39;60.28;100897.02;106233;1270;95206;-82
2022/08/08 04:48:56;;;;;;;12.40;4.90;;;;;;;17.60;60.21;100898.23;106120;1271;138056;-79
2022/08/08 04:51:28;;;;;;;10.50;5.30;;;;;;;17.85;60.15;100895.05;106317;1271;109720;-79
2022/08/08 04:54:21;;;;;;;8.90;4.80;;;;;;;18.14;59.89;100886.80;106242;1271;108841;-82
2022/08/08 04:57:14;;;;;;;7.30;4.70;;;;;;;18.43;59.27;100889.33;106368;1270;107756;-80
2022/08/08 04:59:46;;;;;;;12.70;4.70;;;;;;;18.62;58.84;100894.27;107898;1270;93521;-78
2022/08/08 05:02:19;;;;;;;11.20;4.30;;;;;;;18.80;58.22;100894.71;107304;1270;138866;-74
2022/08/08 05:05:00;;;;;;;7.10;4.50;;;;;;;19.00;58.15;100899.40;106398;1271;110134;-75
2022/08/08 05:07:34;;;;;;;11.50;4.00;;;;;;;19.27;57.74;100896.92;106149;1272;139242;-69
2022/08/08 05:10:15;;;;;;;10.90;4.90;;;;;;;19.65;57.68;100899.27;106496;1271;107714;-69
2022/08/08 05:12:48;;;;;;;7.80;4.00;;;;;;;20.09;57.07;100900.52;106229;1271;137889;-68
2022/08/08 05:15:33;;;;;;;10.20;4.10;;;;;;;20.47;55.77;100900.64;107899;1271;93439;-69
2022/08/08 05:18:25;;;;;;;7.00;4.10;;;;;;;20.83;54.91;100899.60;107395;1270;109836;-69
2022/08/08 05:20:59;;;;;;;6.90;3.70;;;;;;;21.24;54.35;100901.70;106294;1271;137602;-67
2022/08/08 05:23:37;;;;;;;7.90;4.20;;;;;;;21.70;53.76;100903.77;107887;1270;109045;-70
2022/08/08 05:26:17;;;;;;;6.40;3.60;;;;;;;22.50;52.97;100895.67;106576;1271;137536;-70
2022/08/08 05:28:51;;;;;;;10.00;4.00;;;;;;;23.24;51.87;100897.22;106446;1271;95236;-70
2022/08/08 05:31:36;;;;;;;5.80;3.90;;;;;;;24.34;50.81;100896.70;107008;1271;137842;-70
2022/08/08 05:34:34;;;;;;;9.30;4.40;;;;;;;25.65;48.99;100896.02;106343;1269;108911;-70
2022/08/08 05:37:08;;;;;;;9.10;3.70;;;;;;;26.80;47.03;100889.55;106183;1271;138831;-69
2022/08/08 05:39:52;;;;;;;6.50;3.20;;;;;;;27.32;45.36;100887.30;107784;1271;94408;-70
2022/08/08 05:42:37;;;;;;;5.70;3.30;;;;;;;27.30;44.20;100888.46;107494;1271;95221;-70
2022/08/08 05:45:13;;;;;;;7.50;3.70;;;;;;;27.23;43.46;100893.39;106351;1270;108844;-70
2022/08/08 05:48:04;;;;;;;10.00;3.70;;;;;;;27.19;42.74;100896.10;107710;1271;108906;-71
2022/08/08 05:50:41;;;;;;;9.50;3.70;;;;;;;27.35;42.60;100898.69;106833;1274;137472;-70
2022/08/08 05:53:24;;;;;;;8.40;3.90;;;;;;;27.69;42.00;100901.55;107752;1271;93596;-71
2022/08/08 05:56:19;;;;;;;5.90;3.70;;;;;;;28.78;41.22;100903.92;107697;1271;137192;-71
2022/08/08 05:59:03;;;;;;;8.10;3.20;;;;;;;30.06;39.56;100902.64;107699;1271;109940;-71
2022/08/08 06:01:42;;;;;;;6.90;3.40;;;;;;;31.42;38.06;100896.15;106462;1271;137584;-70
2022/08/08 06:04:29;;;;;;;5.50;3.50;;;;;;;32.86;36.20;100894.41;106212;1271;107966;-70
2022/08/08 06:07:07;;;;;;;5.80;3.40;;;;;;;34.14;34.57;100899.23;107345;1271;137517;-71
2022/08/08 06:09:42;;;;;;;10.40;3.70;;;;;;;35.64;32.95;100891.59;106362;1271;95115;-70
2022/08/08 06:12:35;;;;;;;7.00;3.30;;;;;;;36.98;31.02;100894.94;106419;1271;109742;-70
2022/08/08 06:15:10;;;;;;;4.40;2.80;;;;;;;37.94;29.43;100890.91;107757;1271;109421;-70
2022/08/08 06:17:49;;;;;;;3.50;2.60;;;;;;;38.91;28.56;100889.05;107362;1271;108473;-70
2022/08/08 06:20:42;;;;;;;4.20;2.10;;;;;;;40.16;26.88;100890.63;106233;1271;137547;-69
2022/08/08 06:23:15;;;;;;;5.90;2.40;;;;;;;41.13;25.98;100888.30;107623;1271;94475;-70
2022/08/08 06:26:02;;;;;;;3.10;1.60;;;;;;;42.14;24.10;100892.83;106304;1270;137846;-70
2022/08/08 06:28:59;;;;;;;6.30;1.40;;;;;;;42.47;22.60;100899.24;107241;1271;109725;-69
2022/08/08 06:31:37;;;;;;;4.50;1.80;;;;;;;42.20;22.43;100902.40;106484;1271;137633;-70
2022/08/08 06:34:36;;;;;;;5.30;1.60;;;;;;;42.31;21.89;100902.04;106239;1271;96503;-70
2022/08/08 06:37:14;;;;;;;7.90;1.60;;;;;;;42.60;21.37;100899.52;107666;1270;137888;-72
2022/08/08 06:40:02;;;;;;;6.90;1.50;;;;;;;42.73;21.23;100900.41;107768;1271;111340;-72
2022/08/08 06:42:36;;;;;;;3.70;1.40;;;;;;;42.79;20.81;100901.46;107818;1271;109277;-72
2022/08/08 06:45:10;;;;;;;2.50;1.60;;;;;;;43.16;20.25;100895.18;107788;1271;108642;-74
2022/08/08 06:47:44;;;;;;;4.50;1.40;;;;;;;43.52;19.77;100897.92;107791;1271;95169;-73
2022/08/08 06:50:32;;;;;;;3.30;1.10;;;;;;;43.69;19.69;100900.63;107702;1271;138743;-72
2022/08/08 06:53:10;;;;;;;4.40;1.60;;;;;;;43.63;19.50;100899.58;107131;1271;110127;-71
2022/08/08 06:55:52;;;;;;;3.20;1.40;;;;;;;43.89;19.41;100904.86;107116;1270;138044;-72
2022/08/08 06:58:37;;;;;;;4.10;1.50;;;;;;;44.02;18.94;100904.44;107631;1270;108740;-71
2022/08/08 07:01:13;;;;;;;5.00;1.20;;;;;;;44.21;18.55;100903.73;106167;1270;139884;-73
2022/08/08 07:04:19;;;;;;;5.20;1.40;;;;;;;44.59;18.61;100906.95;107261;1270;94873;-73
2022/08/08 07:07:19;;;;;;;4.70;1.20;;;;;;;44.97;18.02;100907.73;106729;1270;137493;-73
2022/08/08 07:10:00;;;;;;;3.60;1.20;;;;;;;45.13;18.19;100905.25;107650;1270;109181;-72
2022/08/08 07:12:41;;;;;;;2.90;1.30;;;;;;;45.36;17.63;100904.08;107714;1271;108902;-72
2022/08/08 07:15:31;;;;;;;5.40;1.40;;;;;;;45.19;16.87;100910.30;107721;1270;96423;-73
2022/08/08 07:18:36;;;;;;;2.90;1.10;;;;;;;44.95;16.95;100908.33;106639;1270;96423;-71
2022/08/08 07:21:17;;;;;;;3.20;1.00;;;;;;;44.45;17.24;100901.65;107251;1270;110634;-72
2022/08/08 07:24:06;;;;;;;3.90;1.10;;;;;;;44.20;17.07;100907.02;106931;1270;108914;-73
2022/08/08 07:27:10;;;;;;;7.20;1.20;;;;;;;43.81;16.55;100910.03;106232;1270;137375;-73
2022/08/08 07:29:51;;;;;;;2.90;1.00;;;;;;;43.28;17.47;100911.85;107646;1270;94748;-71
2022/08/08 07:32:38;;;;;;;2.00;0.80;;;;;;;42.82;17.79;100917.59;107654;1270;138508;-74
2022/08/08 07:35:13;;;;;;;2.80;1.00;;;;;;;42.47;18.28;100921.95;107744;1271;111023;-73
2022/08/08 07:37:49;;;;;;;3.00;1.10;;;;;;;42.11;18.41;100920.67;107729;1270;137753;-74
2022/08/08 07:40:47;;;;;;;7.70;1.20;;;;;;;41.43;18.54;100918.99;107785;1270;108799;-73
2022/08/08 07:43:23;;;;;;;2.80;1.20;;;;;;;41.02;18.94;100912.09;107656;1270;137810;-73
2022/08/08 07:46:07;;;;;;;;;;;;;;;41.07;19.41;100916.38;107669;1271;94391;-73
2022/08/08 07:48:56;;;;;;;7.90;1.00;;;;;;;41.29;19.08;100918.92;107523;1270;124446;-72
2022/08/08 07:51:31;;;;;;;0.60;0.40;;;;;;;41.51;18.85;100916.80;107669;1271;108913;-72
2022/08/08 07:54:32;;;;;;;2.70;0.70;;;;;;;41.74;18.61;100923.33;106579;1270;108991;-71
2022/08/08 07:57:23;;;;;;;2.50;0.90;;;;;;;41.96;18.32;100924.44;107649;1270;138406;-73
2022/08/08 08:00:05;;;;;;;2.90;1.20;;;;;;;42.37;17.73;100925.34;107445;1271;96789;-72
2022/08/08 08:03:04;;;;;;;2.50;0.80;;;;;;;42.87;17.06;100924.23;107447;1269;137395;-73
2022/08/08 08:05:45;;;;;;;5.70;1.00;;;;;;;43.12;16.43;100923.00;107768;1270;109175;-71
2022/08/08 08:08:30;;;;;;;1.80;0.90;;;;;;;42.71;16.67;100925.56;107665;1270;137459;-75
2022/08/08 08:11:05;;;;;;;3.50;1.20;;;;;;;42.23;17.36;100928.02;107765;1270;94702;-74
2022/08/08 08:13:41;;;;;;;4.20;1.20;;;;;;;42.32;17.97;100931.27;107698;1270;137726;-73
2022/08/08 08:16:36;;;;;;;7.60;2.10;;;;;;;42.34;18.05;100931.15;107653;1270;111166;-72
2022/08/08 08:19:09;;;;;;;1.20;0.90;;;;;;;42.13;17.73;100929.15;107665;1270;137961;-71
2022/08/08 08:21:48;;;;;;;1.90;0.90;;;;;;;41.86;17.63;100928.30;106946;1271;107673;-73
2022/08/08 08:24:44;;;;;;;3.60;0.80;;;;;;;42.02;17.91;100929.95;106251;1270;96808;-73
2022/08/08 08:27:20;;;;;;;2.20;0.90;;;;;;;41.75;17.52;100929.14;106423;1270;97918;-71
2022/08/08 08:29:56;;;;;;;4.80;0.90;;;;;;;40.67;17.49;100929.80;107085;1270;111204;-71
2022/08/08 08:32:30;;;;;;;2.00;0.80;;;;;;;39.70;17.55;100927.06;107680;1271;140869;-71
2022/08/08 08:35:14;;;;;;;3.10;0.80;;;;;;;39.57;18.73;100925.17;106485;1271;108892;-71
2022/08/08 08:37:47;;;;;;;1.20;0.70;;;;;;;39.74;19.32;100927.63;107209;1268;137678;-71
2022/08/08 08:40:40;;;;;;;2.20;1.10;;;;;;;39.03;18.88;100927.33;106791;1271;96501;-71
2022/08/08 08:43:14;;;;;;;3.00;0.80;;;;;;;38.04;19.19;100933.08;106402;1271;138174;-71
2022/08/08 08:45:51;;;;;;;3.30;1.00;;;;;;;37.44;20.00;100930.31;107186;1270;108881;-71
2022/08/08 08:48:29;;;;;;;1.80;0.90;;;;;;;37.77;20.90;100931.37;106307;1270;109918;-71
2022/08/08 08:51:03;;;;;;;3.20;1.40;;;;;;;38.14;20.57;100927.10;106137;1270;137359;-67
2022/08/08 08:53:42;;;;;;;3.40;0.90;;;;;;;38.48;20.76;100927.54;107195;1270;96491;-71
2022/08/08 08:56:31;;;;;;;2.90;1.10;;;;;;;38.73;20.35;100920.31;107119;1270;137277;-70
2022/08/08 08:59:10;;;;;;;3.30;1.30;;;;;;;38.81;19.70;100923.14;107797;1270;107862;-71
2022/08/08 09:01:56;;;;;;;1.70;1.00;;;;;;;38.60;19.51;100919.45;107677;1270;137516;-72
2022/08/08 09:04:34;;;;;;;1.70;0.80;;;;;;;38.34;19.87;100923.65;107701;1271;94724;-71
2022/08/08 09:07:19;;;;;;;4.60;1.00;;;;;;;38.29;20.20;100926.48;107595;1270;137483;-72
2022/08/08 09:09:54;;;;;;;4.10;1.10;;;;;;;38.28;20.21;100923.14;107814;1270;110011;-72
2022/08/08 09:12:43;;;;;;;3.10;0.90;;;;;;;38.32;19.63;100921.60;107822;1270;106332;-74
2022/08/08 09:15:15;;;;;;;;;;;;;;;37.91;18.65;100918.81;107316;1271;108793;-73
2022/08/08 09:18:08;;;;;;;2.10;1.20;;;;;;;36.70;19.63;100918.69;106297;1271;98278;-72
2022/08/08 09:20:46;;;;;;;4.10;0.90;;;;;;;35.81;20.16;100923.51;107059;1270;137897;-73
2022/08/08 09:23:38;;;;;;;3.50;0.90;;;;;;;35.64;21.88;100922.23;106198;1271;111051;-72
2022/08/08 09:26:19;;;;;;;5.10;1.10;;;;;;;36.08;22.75;100918.27;106248;1270;138290;-72
2022/08/08 09:28:54;;;;;;;1.20;0.90;;;;;;;36.52;22.16;100918.29;106283;1272;108618;-72
2022/08/08 09:31:47;;;;;;;1.50;0.70;;;;;;;36.88;21.71;100914.66;107697;1270;137804;-72
2022/08/08 09:34:38;;;;;;;1.90;0.80;;;;;;;37.30;21.36;100908.30;106248;1270;96498;-73
2022/08/08 09:37:29;;;;;;;2.60;1.10;;;;;;;37.66;20.51;100911.18;106152;1270;137564;-73
2022/08/08 09:40:28;;;;;;;2.10;1.00;;;;;;;37.90;19.54;100908.45;106237;1270;106756;-72
2022/08/08 09:43:29;;;;;;;3.10;1.20;;;;;;;37.94;20.31;100910.24;106283;1270;137965;-72
2022/08/08 09:46:24;;;;;;;2.20;1.10;;;;;;;38.09;20.57;100911.50;106320;1270;96465;-73
2022/08/08 09:49:02;;;;;;;2.70;0.80;;;;;;;38.24;19.86;100907.34;107714;1271;137439;-72
2022/08/08 09:51:56;;;;;;;5.00;0.90;;;;;;;38.02;19.54;100909.77;107799;1271;111084;-72
2022/08/08 09:54:43;;;;;;;2.40;0.70;;;;;;;37.33;19.57;100907.39;107764;1270;108826;-70
2022/08/08 09:57:32;;;;;;;2.90;0.70;;;;;;;37.23;20.15;100908.00;106836;1270;108878;-69
2022/08/08 10:00:19;;;;;;;4.00;0.90;;;;;;;36.78;19.80;100905.27;107461;1270;94477;-69
2022/08/08 10:03:16;;;;;;;3.20;1.10;;;;;;;36.59;20.12;100894.77;107829;1270;96561;-67
2022/08/08 10:05:51;;;;;;;2.20;0.70;;;;;;;36.54;20.07;100900.81;107871;1270;111137;-71
2022/08/08 10:08:24;;;;;;;1.90;0.90;;;;;;;36.03;20.16;100900.66;107188;1270;138920;-70
2022/08/08 10:11:01;;;;;;;3.40;1.10;;;;;;;35.27;20.42;100905.79;106746;1270;108736;-71
2022/08/08 10:13:58;;;;;;;4.60;1.10;;;;;;;34.49;21.02;100910.86;107555;1269;137772;-68
2022/08/08 10:16:40;;;;;;;3.60;1.00;;;;;;;34.41;22.10;100909.42;106633;1270;96372;-66
2022/08/08 10:19:12;;;;;;;3.80;0.70;;;;;;;34.45;22.27;100906.09;106718;1269;137619;-67
2022/08/08 10:21:49;;;;;;;3.20;1.30;;;;;;;34.04;22.15;100900.69;106623;1270;108871;-67
2022/08/08 10:24:22;;;;;;;1.80;0.90;;;;;;;33.80;22.43;100902.46;106407;1270;108945;-66
2022/08/08 10:27:02;;;;;;;2.00;0.90;;;;;;;33.38;22.15;100904.77;107201;1270;137315;-69
2022/08/08 10:29:48;;;;;;;0.90;0.60;;;;;;;33.41;22.90;100905.69;106722;1270;96485;-69
2022/08/08 10:32:39;;;;;;;5.80;1.00;;;;;;;33.57;22.89;100903.39;107737;1270;137292;-69
2022/08/08 10:35:24;;;;;;;3.10;0.80;;;;;;;33.19;22.90;100902.33;107889;1270;108824;-71
2022/08/08 10:38:17;;;;;;;3.60;1.00;;;;;;;32.63;22.77;100902.17;107681;1270;137672;-71
2022/08/08 10:40:53;;;;;;;1.70;0.80;;;;;;;32.19;22.70;100903.75;107836;1270;94627;-69
2022/08/08 10:43:37;;;;;;;2.80;0.80;;;;;;;32.25;24.14;100903.06;107381;1270;139806;-68
2022/08/08 10:49:22;;;;;;;2.80;0.80;;;;;;;32.83;24.48;100884.94;102767;1312;635296;-69
2022/08/08 10:52:25;;;;;;;2.40;0.80;;;;;;;33.11;23.98;100887.81;105466;1283;95549;-67
2022/08/08 10:55:05;;;;;;;2.70;1.10;;;;;;;33.29;22.66;100883.92;106603;1283;136967;-68
2022/08/08 10:57:43;;;;;;;4.50;1.10;;;;;;;33.37;22.15;100887.06;106378;1284;108439;-67
2022/08/08 11:00:26;;;;;;;2.00;0.90;;;;;;;33.35;22.02;100886.49;105723;1283;109022;-67
2022/08/08 11:03:09;;;;;;;3.30;0.90;;;;;;;33.34;21.81;100885.33;105695;1283;1349527;-67
2022/08/08 11:05:50;;;;;;;3.70;1.00;;;;;;;33.24;21.99;100882.95;106801;1282;94091;-68
2022/08/08 11:08:32;;;;;;;4.80;0.90;;;;;;;33.11;22.69;100882.76;105857;1283;137121;-67
2022/08/08 11:27:49;;;;;;;2.00;0.90;;;;;;;30.36;23.18;100875.81;101889;1271;95159;-67
2022/08/08 11:30:27;;;;;;;1.50;0.90;;;;;;;30.38;23.56;100873.83;105760;1281;109753;-68
2022/08/08 11:33:05;;;;;;;1.60;0.70;;;;;;;30.13;23.30;100871.85;105707;1281;137864;-66
2022/08/08 11:35:45;;;;;;;1.40;1.00;;;;;;;29.75;23.75;100873.09;105634;1282;108928;-66
2022/08/08 11:38:17;;;;;;;1.80;0.90;;;;;;;29.44;24.18;100867.08;105779;1281;138426;-66
2022/08/08 11:41:10;;;;;;;2.60;0.80;;;;;;;29.26;24.67;100864.23;106045;1282;95268;-66
2022/08/08 11:43:44;;;;;;;1.80;1.00;;;;;;;29.21;24.71;100865.89;105913;1281;137543;-68
2022/08/08 11:46:21;;;;;;;2.00;0.80;;;;;;;29.21;25.26;100870.30;105778;1281;108916;-67
2022/08/08 11:48:55;;;;;;;2.00;1.00;;;;;;;29.24;25.36;100865.75;105766;1281;138503;-67
2022/08/08 11:51:28;;;;;;;2.70;0.70;;;;;;;29.11;25.11;100870.84;105935;1281;95193;-67
2022/08/08 11:54:11;;;;;;;2.80;1.10;;;;;;;28.87;25.77;100868.19;105778;1281;95144;-67
2022/08/08 11:57:21;;;;;;;2.30;1.00;;;;;;;28.69;26.13;100870.13;106863;1281;137151;-67
2022/08/08 12:00:00;;;;;;;2.10;1.00;;;;;;;28.46;26.66;100870.30;106952;1281;108833;-66
2022/08/08 12:02:53;;;;;;;3.20;0.80;;;;;;;28.24;26.52;100871.36;106848;1281;137576;-67
2022/08/08 12:05:35;;;;;;;3.90;1.00;;;;;;;28.05;26.81;100868.85;106960;1282;93638;-67
2022/08/08 12:08:09;;;;;;;1.70;1.00;;;;;;;27.92;27.24;100873.19;106815;1281;137600;-69
2022/08/08 12:10:49;;;;;;;4.90;1.20;;;;;;;27.79;27.45;100875.07;106893;1281;110192;-68
2022/08/08 12:13:25;;;;;;;5.30;1.20;;;;;;;27.66;27.89;100871.16;107294;1277;138277;-67
2022/08/08 12:16:20;;;;;;;2.00;1.10;;;;;;;27.58;28.04;100867.02;107138;1277;108918;-67
2022/08/08 12:19:10;;;;;;;5.00;0.90;;;;;;;27.43;27.71;100870.47;105843;1278;137798;-68
2022/08/08 12:21:43;;;;;;;3.30;0.90;;;;;;;27.22;27.92;100863.99;107275;1278;94692;-67
2022/08/08 12:24:48;;;;;;;2.20;0.90;;;;;;;27.03;28.22;100864.27;106909;1278;109963;-68
2022/08/08 12:27:35;;;;;;;2.60;1.10;;;;;;;26.87;28.76;100867.16;107364;1277;109636;-69
2022/08/08 12:30:29;;;;;;;5.30;0.90;;;;;;;26.79;29.12;100863.59;107353;1276;107098;-69
2022/08/08 12:33:01;;;;;;;2.60;1.00;;;;;;;26.75;29.14;100861.64;107301;1277;137047;-69
2022/08/08 12:35:42;;;;;;;5.20;1.00;;;;;;;26.87;29.38;100859.70;107448;1277;93418;-67
2022/08/08 12:38:24;;;;;;;1.60;0.90;;;;;;;27.07;29.42;100858.58;107267;1277;137213;-73
2022/08/08 12:41:18;;;;;;;2.50;1.00;;;;;;;27.24;28.90;100851.64;107311;1277;109122;-70
2022/08/08 12:44:29;;;;;;;1.90;1.00;;;;;;;27.31;28.59;100857.06;105788;1277;137283;-69
2022/08/08 12:47:09;;;;;;;3.60;1.10;;;;;;;27.48;28.66;100853.48;106079;1278;95164;-73
2022/08/08 12:50:01;;;;;;;2.10;0.80;;;;;;;27.71;27.61;100857.05;106872;1277;137040;-67
2022/08/08 12:52:41;;;;;;;3.70;0.90;;;;;;;27.80;27.31;100854.50;106794;1278;109809;-69
2022/08/08 12:55:16;;;;;;;1.90;1.40;;;;;;;27.84;27.61;100848.39;105803;1277;137410;-65
2022/08/08 12:58:11;;;;;;;2.20;0.90;;;;;;;27.84;27.28;100851.09;105921;1278;109072;-68
2022/08/08 13:00:50;;;;;;;3.20;0.70;;;;;;;27.78;27.35;100854.65;105892;1278;95271;-67
2022/08/08 13:03:32;;;;;;;3.30;1.00;;;;;;;27.68;27.89;100848.48;107067;1277;95165;-67
2022/08/08 13:06:13;;;;;;;1.70;0.90;;;;;;;27.56;28.20;100844.70;106213;1274;109196;-68
2022/08/08 13:08:48;;;;;;;2.00;0.80;;;;;;;27.43;28.58;100845.98;106230;1274;138688;-66
2022/08/08 13:11:33;;;;;;;1.70;0.90;;;;;;;27.30;28.83;100847.13;106558;1274;108813;-66
2022/08/08 13:14:43;;;;;;;4.70;1.20;;;;;;;27.15;29.04;100846.09;105957;1274;138383;-67
2022/08/08 13:17:26;;;;;;;2.10;1.00;;;;;;;27.00;29.31;100847.02;106151;1274;95181;-66